createdAt,value
2023-03-06T00:00:33.289Z,10.97
2023-03-06T00:03:00.895Z,11.53
2023-03-06T00:05:28.811Z,11.33
2023-03-06T00:07:56.509Z,10.83
2023-03-06T00:10:27.039Z,9.93
2023-03-06T00:12:55.782Z,11.03
2023-03-06T00:15:27.783Z,11.17
2023-03-06T00:17:55.977Z,10.80
2023-03-06T00:20:23.756Z,10.70
2023-03-06T00:22:51.912Z,9.77
2023-03-06T00:25:21.687Z,9.87
2023-03-06T00:27:49.728Z,10.90
2023-03-06T00:30:20.833Z,10.67
2023-03-06T00:32:50.031Z,10.20
2023-03-06T00:35:18.420Z,8.27
2023-03-06T00:37:49.335Z,8.73
2023-03-06T00:40:19.299Z,8.50
2023-03-06T00:42:47.743Z,7.00
2023-03-06T00:45:16.063Z,7.60
2023-03-06T00:47:44.572Z,7.80
2023-03-06T00:50:13.804Z,7.40
2023-03-06T00:52:44.105Z,7.20
2023-03-06T00:55:12.142Z,6.63
2023-03-06T00:57:39.648Z,6.77
2023-03-06T01:00:08.455Z,7.00
2023-03-06T01:02:36.096Z,6.33
2023-03-06T01:05:03.901Z,5.90
2023-03-06T01:07:36.433Z,7.17
2023-03-06T01:10:04.565Z,6.17
2023-03-06T01:12:32.395Z,5.43
2023-03-06T01:15:00.113Z,6.60
2023-03-06T01:17:27.702Z,6.30
2023-03-06T01:19:55.320Z,6.30
2023-03-06T01:22:22.853Z,6.30
2023-03-06T01:24:51.871Z,5.93
2023-03-06T01:27:19.517Z,5.40
2023-03-06T01:29:47.080Z,5.67
2023-03-06T01:32:14.695Z,5.57
2023-03-06T01:34:42.569Z,5.70
2023-03-06T01:37:10.182Z,5.13
2023-03-06T01:39:38.050Z,5.37
2023-03-06T01:42:07.655Z,5.83
2023-03-06T01:44:35.438Z,6.30
2023-03-06T01:47:03.210Z,7.10
2023-03-06T01:49:33.645Z,7.27
2023-03-06T01:52:04.000Z,8.17
2023-03-06T01:54:35.200Z,8.30
2023-03-06T01:57:05.217Z,9.00
2023-03-06T01:59:36.118Z,9.07
2023-03-06T02:02:04.707Z,8.90
2023-03-06T02:04:32.852Z,8.93
2023-03-06T02:07:04.766Z,7.90
2023-03-06T02:09:35.408Z,8.30
2023-03-06T02:12:04.045Z,9.23
2023-03-06T02:14:31.664Z,8.60
2023-03-06T02:17:03.961Z,8.57
2023-03-06T02:19:39.563Z,8.23
2023-03-06T02:22:07.455Z,7.47
2023-03-06T02:24:40.059Z,8.93
2023-03-06T02:27:11.268Z,10.00
2023-03-06T02:29:39.835Z,9.60
2023-03-06T02:32:08.215Z,9.53
2023-03-06T02:34:50.663Z,10.40
2023-03-06T02:37:18.460Z,11.27
2023-03-06T02:39:48.379Z,10.90
2023-03-06T02:42:22.085Z,11.33
2023-03-06T02:44:50.354Z,13.53
2023-03-06T02:47:17.815Z,11.40
2023-03-06T02:49:45.734Z,12.53
2023-03-06T02:52:14.097Z,12.43
2023-03-06T02:54:42.495Z,12.27
2023-03-06T02:57:10.567Z,11.83
2023-03-06T02:59:39.541Z,14.13
2023-03-06T03:02:07.540Z,15.20
2023-03-06T03:04:35.387Z,12.43
2023-03-06T03:07:04.113Z,13.00
2023-03-06T03:09:36.887Z,15.47
2023-03-06T03:12:06.593Z,15.17
2023-03-06T03:14:34.791Z,14.77
2023-03-06T03:17:04.964Z,15.87
2023-03-06T03:19:32.728Z,15.20
2023-03-06T03:22:00.357Z,14.40
2023-03-06T03:24:28.230Z,15.37
2023-03-06T03:26:56.125Z,14.73
2023-03-06T03:29:25.570Z,13.10
2023-03-06T03:31:54.241Z,14.83
2023-03-06T03:34:26.719Z,14.17
2023-03-06T03:36:56.912Z,14.90
2023-03-06T03:39:24.559Z,13.47
2023-03-06T03:41:52.182Z,14.57
2023-03-06T03:44:20.495Z,15.00
2023-03-06T03:46:48.903Z,13.83
2023-03-06T03:49:21.157Z,14.07
2023-03-06T03:51:50.422Z,13.10
2023-03-06T03:54:18.508Z,12.90
2023-03-06T03:56:48.385Z,12.73
2023-03-06T03:59:22.099Z,12.50
2023-03-06T04:02:01.074Z,12.47
2023-03-06T04:04:28.780Z,10.90
2023-03-06T04:06:58.016Z,11.27
2023-03-06T04:09:25.612Z,10.40
2023-03-06T04:11:53.197Z,11.90
2023-03-06T04:14:20.880Z,10.20
2023-03-06T04:16:49.141Z,9.87
2023-03-06T04:19:16.692Z,9.17
2023-03-06T04:21:44.246Z,9.23
2023-03-06T04:24:13.308Z,8.50
2023-03-06T04:26:40.923Z,9.27
2023-03-06T04:29:08.736Z,8.60
2023-03-06T04:31:36.333Z,8.07
2023-03-06T04:34:04.607Z,8.43
2023-03-06T04:36:34.117Z,8.00
2023-03-06T04:39:07.018Z,8.73
2023-03-06T04:41:37.036Z,9.23
2023-03-06T04:44:04.786Z,7.87
2023-03-06T04:46:32.606Z,9.33
2023-03-06T04:49:00.439Z,8.53
2023-03-06T04:51:28.341Z,8.80
2023-03-06T04:53:55.858Z,7.60
2023-03-06T04:56:23.406Z,8.23
2023-03-06T04:58:52.362Z,11.30
2023-03-06T05:01:20.392Z,8.67
2023-03-06T05:03:49.648Z,9.60
2023-03-06T05:06:17.202Z,10.10
2023-03-06T05:08:44.737Z,6.80
2023-03-06T05:11:12.563Z,7.80
2023-03-06T05:13:40.140Z,6.90
2023-03-06T05:16:09.924Z,7.67
2023-03-06T05:18:37.673Z,7.53
2023-03-06T05:21:06.702Z,5.60
2023-03-06T05:23:36.220Z,5.67
2023-03-06T05:26:06.743Z,6.40
2023-03-06T05:28:34.265Z,5.57
2023-03-06T05:31:03.467Z,7.10
2023-03-06T05:33:33.980Z,5.93
2023-03-06T05:36:01.898Z,5.03
2023-03-06T05:38:31.513Z,5.00
2023-03-06T05:40:59.151Z,5.60
2023-03-06T05:43:26.726Z,4.40
2023-03-06T05:46:01.616Z,5.60
2023-03-06T05:48:29.415Z,4.67
2023-03-06T05:50:59.226Z,5.80
2023-03-06T05:53:27.047Z,5.37
2023-03-06T05:55:58.507Z,5.93
2023-03-06T05:58:26.322Z,7.30
2023-03-06T06:00:53.852Z,8.10
2023-03-06T06:03:21.885Z,8.57
2023-03-06T06:05:50.155Z,8.80
2023-03-06T06:08:19.656Z,9.80
2023-03-06T06:10:47.245Z,10.00
2023-03-06T06:13:14.931Z,10.17
2023-03-06T06:15:42.538Z,11.17
2023-03-06T06:18:10.165Z,10.10
2023-03-06T06:20:38.270Z,11.03
2023-03-06T06:23:05.878Z,11.30
2023-03-06T06:25:34.927Z,11.80
2023-03-06T06:28:03.364Z,12.00
2023-03-06T06:30:31.168Z,11.10
2023-03-06T06:32:59.390Z,10.53
2023-03-06T06:35:27.636Z,9.53
2023-03-06T06:37:55.399Z,11.03
2023-03-06T06:40:24.419Z,11.40
2023-03-06T06:42:54.705Z,10.77
2023-03-06T06:45:22.207Z,10.57
2023-03-06T06:47:51.031Z,10.50
2023-03-06T06:50:19.150Z,9.43
2023-03-06T06:52:47.039Z,10.80
2023-03-06T06:55:15.068Z,11.67
2023-03-06T06:57:43.421Z,11.13
2023-03-06T07:00:14.719Z,10.30
2023-03-06T07:02:42.379Z,11.90
2023-03-06T07:05:10.701Z,10.43
2023-03-06T07:07:39.082Z,10.50
2023-03-06T07:10:12.716Z,9.47
2023-03-06T07:12:40.308Z,8.43
2023-03-06T07:15:10.054Z,8.90
2023-03-06T07:17:39.161Z,9.47
2023-03-06T07:20:08.730Z,10.83
2023-03-06T07:22:48.650Z,11.60
2023-03-06T07:25:19.029Z,10.80
2023-03-06T07:27:52.842Z,9.83
2023-03-06T07:30:21.497Z,10.23
2023-03-06T07:32:53.559Z,12.23
2023-03-06T07:35:21.230Z,10.90
2023-03-06T07:37:49.018Z,10.70
2023-03-06T07:40:16.839Z,11.77
2023-03-06T07:42:44.671Z,11.67
2023-03-06T07:45:16.565Z,11.27
2023-03-06T07:47:44.632Z,10.70
2023-03-06T07:50:14.009Z,10.67
2023-03-06T07:52:41.629Z,10.60
2023-03-06T07:55:10.626Z,9.63
2023-03-06T07:57:38.764Z,9.30
2023-03-06T08:00:10.067Z,10.20
2023-03-06T08:02:44.076Z,11.27
2023-03-06T08:05:15.535Z,10.53
2023-03-06T08:07:43.549Z,10.73
2023-03-06T08:10:14.210Z,12.50
2023-03-06T08:12:42.505Z,9.77
2023-03-06T08:15:12.395Z,9.10
2023-03-06T08:17:40.427Z,9.43
2023-03-06T08:20:10.409Z,9.13
2023-03-06T08:22:39.503Z,9.07
2023-03-06T08:25:08.501Z,8.87
2023-03-06T08:27:36.768Z,9.10
2023-03-06T08:30:05.680Z,9.30
2023-03-06T08:32:36.432Z,9.63
2023-03-06T08:35:04.528Z,8.80
2023-03-06T08:37:32.271Z,7.80
2023-03-06T08:40:02.557Z,9.30
2023-03-06T08:42:30.160Z,10.63
2023-03-06T08:44:58.018Z,10.90
2023-03-06T08:47:36.869Z,9.93
2023-03-06T08:50:05.099Z,11.10
2023-03-06T08:52:32.947Z,11.87
2023-03-06T08:55:03.620Z,11.90
2023-03-06T08:57:31.535Z,10.37
2023-03-06T08:59:59.166Z,11.30
2023-03-06T09:02:26.903Z,11.30
2023-03-06T09:04:55.020Z,12.00
2023-03-06T09:07:22.692Z,11.43
2023-03-06T09:09:50.224Z,11.90
2023-03-06T09:12:19.139Z,9.60
2023-03-06T09:14:46.729Z,9.10
2023-03-06T09:17:14.814Z,10.70
2023-03-06T09:19:42.620Z,11.07
2023-03-06T09:22:10.277Z,10.17
2023-03-06T09:24:37.998Z,8.43
2023-03-06T09:27:05.563Z,6.20
2023-03-06T09:29:34.536Z,7.13
2023-03-06T09:32:02.167Z,6.23
2023-03-06T09:34:32.605Z,5.87
2023-03-06T09:37:05.301Z,6.43
2023-03-06T09:39:33.324Z,5.27
2023-03-06T09:42:00.953Z,5.70
2023-03-06T09:44:32.250Z,7.07
2023-03-06T09:47:34.569Z,7.50
2023-03-06T09:50:13.052Z,7.30
2023-03-06T09:52:46.514Z,6.37
2023-03-06T09:55:17.200Z,5.30
2023-03-06T09:57:53.421Z,5.93
2023-03-06T10:00:25.658Z,6.10
2023-03-06T10:02:58.114Z,5.80
2023-03-06T10:05:28.125Z,5.57
2023-03-06T10:07:59.555Z,6.17
2023-03-06T10:10:29.707Z,6.57
2023-03-06T10:13:03.018Z,6.60
2023-03-06T10:15:33.825Z,5.83
2023-03-06T10:18:03.169Z,4.90
2023-03-06T10:20:38.402Z,5.13
2023-03-06T10:23:26.434Z,4.60
2023-03-06T10:26:00.881Z,4.80
2023-03-06T10:28:31.083Z,5.23
2023-03-06T10:31:02.202Z,4.80
2023-03-06T10:33:38.825Z,5.23
2023-03-06T10:36:07.004Z,5.27
2023-03-06T10:38:37.677Z,5.10
2023-03-06T10:41:08.678Z,5.70
2023-03-06T10:43:37.350Z,7.20
2023-03-06T10:46:06.546Z,8.17
2023-03-06T10:48:37.828Z,9.00
2023-03-06T10:51:22.137Z,7.83
2023-03-06T10:53:52.534Z,8.93
2023-03-06T10:56:31.962Z,9.03
2023-03-06T10:59:07.204Z,8.80
2023-03-06T11:01:35.495Z,8.80
2023-03-06T11:04:22.783Z,9.10
2023-03-06T11:07:08.988Z,7.43
2023-03-06T11:09:37.107Z,9.57
2023-03-06T11:12:22.384Z,8.60
2023-03-06T11:15:10.423Z,6.77
2023-03-06T11:17:43.650Z,8.40
2023-03-06T11:20:23.959Z,6.70
2023-03-06T11:22:54.697Z,5.93
2023-03-06T11:25:23.749Z,5.90
2023-03-06T11:27:57.436Z,6.13
2023-03-06T11:30:31.406Z,5.13
2023-03-06T11:33:00.982Z,4.40
2023-03-06T11:35:35.233Z,3.23
2023-03-06T11:38:07.049Z,3.90
2023-03-06T11:40:41.551Z,2.60
2023-03-06T11:43:17.687Z,3.07
2023-03-06T11:45:46.761Z,3.73
2023-03-06T11:48:24.874Z,3.50
2023-03-06T11:50:55.146Z,3.93
2023-03-06T11:53:24.512Z,2.27
2023-03-06T11:55:59.168Z,3.57
2023-03-06T11:58:43.440Z,2.87
2023-03-06T12:01:14.393Z,3.13
2023-03-06T12:03:57.801Z,2.37
2023-03-06T12:06:33.081Z,1.63
2023-03-06T12:09:10.840Z,1.57
2023-03-06T12:11:44.245Z,1.53
2023-03-06T12:14:32.457Z,1.63
2023-03-06T12:17:13.559Z,1.47
2023-03-06T12:19:52.105Z,1.60
2023-03-06T12:22:32.878Z,1.40
2023-03-06T12:25:09.475Z,1.23
2023-03-06T12:27:43.760Z,1.30
2023-03-06T12:30:30.889Z,1.40
2023-03-06T12:33:04.633Z,1.33
2023-03-06T12:36:01.265Z,1.37
2023-03-06T12:38:40.383Z,0.80
2023-03-06T12:41:15.365Z,0.97
2023-03-06T12:44:09.796Z,1.03
2023-03-06T12:46:39.750Z,0.80
2023-03-06T12:49:15.615Z,0.93
2023-03-06T12:51:45.851Z,0.93
2023-03-06T12:54:15.395Z,1.40
2023-03-06T12:56:43.474Z,0.77
2023-03-06T12:59:35.370Z,1.27
2023-03-06T13:02:15.821Z,0.77
2023-03-06T13:04:53.779Z,0.83
2023-03-06T13:07:41.637Z,0.60
2023-03-06T13:10:15.987Z,0.80
2023-03-06T13:12:50.841Z,0.73
2023-03-06T13:15:33.448Z,1.43
2023-03-06T13:18:01.229Z,1.00
2023-03-06T13:20:37.239Z,0.90
2023-03-06T13:23:42.454Z,0.60
2023-03-06T13:26:13.076Z,0.97
2023-03-06T13:28:44.987Z,0.80
2023-03-06T13:31:26.623Z,1.10
2023-03-06T13:33:58.940Z,1.20
2023-03-06T13:36:29.171Z,1.57
2023-03-06T13:39:07.409Z,1.10
2023-03-06T13:41:55.046Z,1.00
2023-03-06T13:44:47.271Z,1.37
2023-03-06T13:48:02.802Z,0.70
2023-03-06T13:50:38.029Z,1.17
2023-03-06T13:53:48.868Z,1.13
2023-03-06T13:56:28.174Z,1.10
2023-03-06T13:59:17.993Z,1.67
2023-03-06T14:01:53.586Z,1.50
2023-03-06T14:04:56.693Z,2.00
2023-03-06T14:07:27.591Z,2.40
2023-03-06T14:10:02.832Z,1.90
2023-03-06T14:12:34.297Z,1.27
2023-03-06T14:15:12.236Z,1.10
2023-03-06T14:17:40.268Z,1.30
2023-03-06T14:20:15.751Z,1.13
2023-03-06T14:22:43.666Z,1.10
2023-03-06T14:25:17.520Z,1.73
2023-03-06T14:27:49.157Z,2.87
2023-03-06T14:30:25.215Z,1.60
2023-03-06T14:32:55.334Z,1.13
2023-03-06T14:35:26.638Z,1.27
2023-03-06T14:37:58.097Z,1.97
2023-03-06T14:40:30.429Z,1.60
2023-03-06T14:43:28.343Z,1.80
2023-03-06T14:45:59.573Z,1.30
2023-03-06T14:48:38.541Z,1.80
2023-03-06T14:51:07.234Z,1.50
2023-03-06T14:53:35.972Z,2.07
2023-03-06T14:56:06.270Z,1.50
2023-03-06T14:58:39.051Z,1.70
2023-03-06T15:01:14.828Z,1.60
2023-03-06T15:03:44.730Z,2.13
2023-03-06T15:06:17.799Z,2.00
2023-03-06T15:08:47.700Z,1.60
2023-03-06T15:11:16.741Z,1.70
2023-03-06T15:13:44.828Z,2.17
2023-03-06T15:16:30.050Z,2.10
2023-03-06T15:19:00.264Z,2.70
2023-03-06T15:21:29.351Z,2.77
2023-03-06T15:23:58.240Z,4.33
2023-03-06T15:26:29.435Z,2.23
2023-03-06T15:29:09.287Z,3.17
2023-03-06T15:31:39.560Z,2.13
2023-03-06T15:34:23.453Z,3.57
2023-03-06T15:36:54.116Z,3.60
2023-03-06T15:39:36.334Z,2.37
2023-03-06T15:42:15.434Z,2.67
2023-03-06T15:44:43.207Z,1.57
2023-03-06T15:47:12.783Z,2.20
2023-03-06T15:49:40.788Z,1.80
2023-03-06T15:52:09.889Z,1.50
2023-03-06T15:54:37.475Z,1.80
2023-03-06T15:57:07.050Z,2.23
2023-03-06T15:59:38.476Z,1.20
2023-03-06T16:02:16.956Z,1.03
2023-03-06T16:04:44.574Z,2.23
2023-03-06T16:07:12.585Z,2.17
2023-03-06T16:09:41.233Z,1.17
2023-03-06T16:12:14.943Z,1.67
2023-03-06T16:14:42.577Z,1.70
2023-03-06T16:17:11.796Z,2.73
2023-03-06T16:19:41.108Z,1.43
2023-03-06T16:22:08.942Z,1.33
2023-03-06T16:24:37.140Z,1.40
2023-03-06T16:27:05.238Z,1.00
2023-03-06T16:29:33.089Z,1.17
2023-03-06T16:32:01.701Z,0.83
2023-03-06T16:34:29.568Z,1.10
2023-03-06T16:36:59.835Z,1.17
2023-03-06T16:39:27.357Z,1.17
2023-03-06T16:41:54.994Z,1.67
2023-03-06T16:44:22.461Z,1.20
2023-03-06T16:46:51.450Z,0.80
2023-03-06T16:49:20.744Z,1.43
2023-03-06T16:51:48.626Z,1.50
2023-03-06T16:54:17.623Z,1.10
2023-03-06T16:56:45.688Z,1.70
2023-03-06T16:59:13.544Z,1.57
2023-03-06T17:01:42.834Z,1.50
2023-03-06T17:04:10.767Z,2.00
2023-03-06T17:06:38.606Z,1.30
2023-03-06T17:09:06.638Z,1.10
2023-03-06T17:11:38.384Z,1.47
2023-03-06T17:14:06.947Z,1.47
2023-03-06T17:16:36.914Z,2.13
2023-03-06T17:19:04.878Z,12.73
2023-03-06T17:21:34.420Z,30.73
2023-03-06T17:24:03.668Z,4.77
2023-03-06T17:26:31.498Z,7.80
2023-03-06T17:29:00.435Z,3.47
2023-03-06T17:31:28.883Z,10.37
2023-03-06T17:34:00.614Z,29.80
2023-03-06T17:36:29.389Z,3.07
2023-03-06T17:38:58.356Z,5.57
2023-03-06T17:41:27.240Z,5.23
2023-03-06T17:43:56.737Z,10.23
2023-03-06T17:46:27.804Z,8.50
2023-03-06T17:48:56.801Z,9.70
2023-03-06T17:51:24.645Z,13.03
2023-03-06T17:53:52.246Z,5.27
2023-03-06T17:56:20.417Z,10.67
2023-03-06T17:58:48.795Z,8.60
2023-03-06T18:01:27.848Z,2.67
2023-03-06T18:03:58.188Z,2.80
2023-03-06T18:06:27.744Z,6.30
2023-03-06T18:08:55.420Z,3.37
2023-03-06T18:11:23.696Z,2.30
2023-03-06T18:13:58.467Z,3.43
2023-03-06T18:16:28.335Z,2.87
2023-03-06T18:18:57.941Z,2.43
2023-03-06T18:21:26.565Z,5.20
2023-03-06T18:23:54.447Z,2.80
2023-03-06T18:26:24.265Z,2.50
2023-03-06T18:28:53.924Z,3.00
2023-03-06T18:31:24.285Z,5.33
2023-03-06T18:33:52.559Z,2.50
2023-03-06T18:36:25.287Z,2.47
2023-03-06T18:38:53.185Z,6.03
2023-03-06T18:41:21.931Z,2.97
2023-03-06T18:43:52.256Z,2.80
2023-03-06T18:46:24.572Z,3.27
2023-03-06T18:48:52.180Z,2.50
2023-03-06T18:51:20.990Z,2.90
2023-03-06T18:53:48.471Z,2.87
2023-03-06T18:56:17.610Z,2.43
2023-03-06T18:58:45.398Z,2.90
2023-03-06T19:01:15.405Z,2.63
2023-03-06T19:03:43.057Z,3.10
2023-03-06T19:06:12.617Z,2.43
2023-03-06T19:08:41.524Z,3.63
2023-03-06T19:11:10.706Z,2.70
2023-03-06T19:13:38.484Z,2.87
2023-03-06T19:16:07.341Z,4.90
2023-03-06T19:18:35.053Z,2.90
2023-03-06T19:21:09.806Z,16.37
2023-03-06T19:23:37.925Z,3.03
2023-03-06T19:26:07.454Z,2.87
2023-03-06T19:28:36.102Z,2.90
2023-03-06T19:31:09.632Z,3.37
2023-03-06T19:33:38.000Z,2.97
2023-03-06T19:36:06.571Z,2.37
2023-03-06T19:38:34.466Z,2.63
2023-03-06T19:41:01.940Z,2.60
2023-03-06T19:43:31.109Z,3.60
2023-03-06T19:45:58.764Z,3.07
2023-03-06T19:48:26.284Z,3.50
2023-03-06T19:50:53.785Z,3.37
2023-03-06T19:53:21.644Z,3.23
2023-03-06T19:55:49.116Z,3.00
2023-03-06T19:58:16.808Z,2.30
2023-03-06T20:00:45.704Z,2.70
2023-03-06T20:03:13.404Z,2.57
2023-03-06T20:05:46.961Z,3.13
2023-03-06T20:08:14.518Z,3.10
2023-03-06T20:10:42.019Z,3.10
2023-03-06T20:13:09.531Z,3.77
2023-03-06T20:15:37.104Z,3.27
2023-03-06T20:18:06.312Z,2.70
2023-03-06T20:20:33.872Z,2.77
2023-03-06T20:23:04.382Z,3.00
2023-03-06T20:25:34.139Z,3.90
2023-03-06T20:28:02.013Z,3.90
2023-03-06T20:30:37.454Z,3.60
2023-03-06T20:33:06.703Z,3.23
2023-03-06T20:35:34.631Z,3.57
2023-03-06T20:38:02.138Z,3.40
2023-03-06T20:40:29.750Z,3.37
2023-03-06T20:42:57.289Z,3.00
2023-03-06T20:45:24.852Z,3.33
2023-03-06T20:47:56.126Z,4.40
2023-03-06T20:50:26.173Z,3.70
2023-03-06T20:52:58.372Z,4.60
2023-03-06T20:55:25.903Z,3.93
2023-03-06T20:57:53.582Z,4.20
2023-03-06T21:00:24.863Z,3.53
2023-03-06T21:02:55.533Z,4.23
2023-03-06T21:05:24.747Z,4.23
2023-03-06T21:07:53.243Z,5.60
2023-03-06T21:10:20.789Z,4.50
2023-03-06T21:12:48.539Z,4.53
2023-03-06T21:15:19.613Z,5.03
2023-03-06T21:17:47.449Z,4.47
2023-03-06T21:20:17.630Z,4.10
2023-03-06T21:22:46.830Z,5.37
2023-03-06T21:25:20.463Z,4.60
2023-03-06T21:27:48.319Z,4.30
2023-03-06T21:30:16.479Z,5.07
2023-03-06T21:32:46.206Z,5.03
2023-03-06T21:35:14.016Z,4.30
2023-03-06T21:37:41.818Z,4.47
2023-03-06T21:40:14.481Z,5.03
2023-03-06T21:42:43.391Z,4.80
2023-03-06T21:45:12.133Z,3.90
2023-03-06T21:47:40.916Z,4.53
2023-03-06T21:50:12.551Z,4.43
2023-03-06T21:52:40.470Z,4.13
2023-03-06T21:55:09.683Z,4.53
2023-03-06T21:57:38.649Z,4.90
2023-03-06T22:00:08.617Z,4.90
2023-03-06T22:02:38.519Z,3.93
2023-03-06T22:05:06.874Z,4.30
2023-03-06T22:07:38.382Z,4.40
2023-03-06T22:10:09.270Z,3.90
2023-03-06T22:12:39.049Z,4.00
2023-03-06T22:15:08.067Z,4.50
2023-03-06T22:17:35.925Z,4.10
2023-03-06T22:20:04.143Z,4.10
2023-03-06T22:22:31.978Z,4.03
2023-03-06T22:24:59.751Z,3.80
2023-03-06T22:27:29.901Z,4.33
2023-03-06T22:30:02.055Z,4.40
2023-03-06T22:32:29.772Z,4.57
2023-03-06T22:34:57.311Z,5.13
2023-03-06T22:37:24.942Z,4.80
2023-03-06T22:39:52.479Z,4.80
2023-03-06T22:42:20.085Z,4.87
2023-03-06T22:44:47.893Z,4.23
2023-03-06T22:47:17.096Z,4.30
2023-03-06T22:49:44.905Z,4.60
2023-03-06T22:52:15.144Z,5.00
2023-03-06T22:54:43.015Z,4.80
2023-03-06T22:57:10.761Z,4.67
2023-03-06T22:59:38.453Z,4.90
2023-03-06T23:02:06.292Z,5.33
2023-03-06T23:04:35.754Z,5.10
2023-03-06T23:07:04.524Z,7.20
2023-03-06T23:09:33.011Z,6.37
2023-03-06T23:12:19.618Z,6.07
2023-03-06T23:15:06.585Z,6.50
2023-03-06T23:17:52.987Z,8.07
2023-03-06T23:20:43.766Z,7.80
2023-03-06T23:23:30.214Z,8.60
2023-03-06T23:26:00.185Z,8.93
2023-03-06T23:28:28.518Z,7.87
2023-03-06T23:30:56.501Z,8.20
2023-03-06T23:33:24.433Z,9.40
2023-03-06T23:35:53.354Z,9.40
2023-03-06T23:38:21.362Z,10.53
2023-03-06T23:40:49.551Z,10.93
2023-03-06T23:43:17.247Z,11.13
2023-03-06T23:45:53.187Z,12.63
2023-03-06T23:48:20.936Z,12.33
2023-03-06T23:50:48.535Z,13.00
2023-03-06T23:53:18.381Z,13.03
2023-03-06T23:55:47.418Z,13.70
2023-03-06T23:58:16.140Z,14.83
